sensor_id;sensor_type;location;lat;lon;timestamp;P1;P2;P0
79317;PMS7003;68779;50.036;19.964;2024-03-06T00:06:13;26;22;15
79317;PMS7003;68779;50.036;19.964;2024-03-06T00:36:28;28;25;15
79317;PMS7003;68779;50.036;19.964;2024-03-06T01:06:44;28;26;15
79317;PMS7003;68779;50.036;19.964;2024-03-06T01:37:00;28;24;17
79317;PMS7003;68779;50.036;19.964;2024-03-06T02:07:17;26;25;16
79317;PMS7003;68779;50.036;19.964;2024-03-06T02:37:34;31;25;15
79317;PMS7003;68779;50.036;19.964;2024-03-06T03:07:49;20;19;12
79317;PMS7003;68779;50.036;19.964;2024-03-06T03:38:06;21;19;12
79317;PMS7003;68779;50.036;19.964;2024-03-06T04:08:22;19;16;10
79317;PMS7003;68779;50.036;19.964;2024-03-06T04:38:38;18;16;9
79317;PMS7003;68779;50.036;19.964;2024-03-06T05:08:55;22;20;12
79317;PMS7003;68779;50.036;19.964;2024-03-06T05:39:11;19;17;11
79317;PMS7003;68779;50.036;19.964;2024-03-06T06:09:27;18;15;10
79317;PMS7003;68779;50.036;19.964;2024-03-06T06:39:44;26;22;15
79317;PMS7003;68779;50.036;19.964;2024-03-06T07:10:04;24;22;14
79317;PMS7003;68779;50.036;19.964;2024-03-06T07:40:19;28;24;15
79317;PMS7003;68779;50.036;19.964;2024-03-06T08:10:33;29;23;14
79317;PMS7003;68779;50.036;19.964;2024-03-06T08:40:49;23;21;14
79317;PMS7003;68779;50.036;19.964;2024-03-06T09:11:05;29;25;16
79317;PMS7003;68779;50.036;19.964;2024-03-06T09:41:22;32;27;18
79317;PMS7003;68779;50.036;19.964;2024-03-06T10:11:41;27;24;14
79317;PMS7003;68779;50.036;19.964;2024-03-06T10:41:56;30;24;16
79317;PMS7003;68779;50.036;19.964;2024-03-06T11:12:12;25;22;15
79317;PMS7003;68779;50.036;19.964;2024-03-06T12:12:52;32;30;19
79317;PMS7003;68779;50.036;19.964;2024-03-06T12:43:06;30;27;16
79317;PMS7003;68779;50.036;19.964;2024-03-06T13:13:21;30;26;16
79317;PMS7003;68779;50.036;19.964;2024-03-06T13:43:41;32;28;17
79317;PMS7003;68779;50.036;19.964;2024-03-06T14:13:58;27;25;16
79317;PMS7003;68779;50.036;19.964;2024-03-06T14:44:13;27;22;14
79317;PMS7003;68779;50.036;19.964;2024-03-06T15:14:27;19;19;13
79317;PMS7003;68779;50.036;19.964;2024-03-06T15:44:42;30;25;15
79317;PMS7003;68779;50.036;19.964;2024-03-06T16:14:56;32;25;17
79317;PMS7003;68779;50.036;19.964;2024-03-06T16:45:11;23;19;14
79317;PMS7003;68779;50.036;19.964;2024-03-06T17:15:34;23;20;12
79317;PMS7003;68779;50.036;19.964;2024-03-06T17:45:48;23;17;13
79317;PMS7003;68779;50.036;19.964;2024-03-06T18:33:13;11;11;7
79317;PMS7003;68779;50.036;19.964;2024-03-06T19:03:29;9;8;7
79317;PMS7003;68779;50.036;19.964;2024-03-06T19:33:52;13;11;8
79317;PMS7003;68779;50.036;19.964;2024-03-06T20:04:07;12;11;8
79317;PMS7003;68779;50.036;19.964;2024-03-06T20:34:21;7;7;6
79317;PMS7003;68779;50.036;19.964;2024-03-06T21:04:35;21;20;14
79317;PMS7003;68779;50.036;19.964;2024-03-06T21:34:52;17;16;12
79317;PMS7003;68779;50.036;19.964;2024-03-06T22:05:07;13;12;9
79317;PMS7003;68779;50.036;19.964;2024-03-06T22:35:26;15;15;12
79317;PMS7003;68779;50.036;19.964;2024-03-06T23:05:39;17;16;11
79317;PMS7003;68779;50.036;19.964;2024-03-06T23:35:58;22;20;15
